createdAt,value
2018-05-16T00:01:29.098Z,7.80
2018-05-16T00:04:32.343Z,7.97
2018-05-16T00:07:35.596Z,7.97
2018-05-16T00:10:38.890Z,8.67
2018-05-16T00:13:42.150Z,9.00
2018-05-16T00:16:46.171Z,8.30
2018-05-16T00:19:50.864Z,8.77
2018-05-16T00:22:54.900Z,8.60
2018-05-16T00:25:58.185Z,9.00
2018-05-16T00:29:01.436Z,8.23
2018-05-16T00:32:05.457Z,9.23
2018-05-16T00:35:09.471Z,9.40
2018-05-16T00:38:13.533Z,9.07
2018-05-16T00:41:16.815Z,8.80
2018-05-16T00:44:20.058Z,9.43
2018-05-16T00:47:23.320Z,9.13
2018-05-16T00:50:26.566Z,8.40
2018-05-16T00:53:29.825Z,8.47
2018-05-16T00:56:33.126Z,8.97
2018-05-16T00:59:36.354Z,8.27
2018-05-16T01:02:40.381Z,9.90
2018-05-16T01:05:43.665Z,10.00
2018-05-16T01:08:46.919Z,10.00
2018-05-16T01:11:50.174Z,10.20
2018-05-16T01:14:53.422Z,9.73
2018-05-16T01:17:56.669Z,9.70
2018-05-16T01:20:59.914Z,9.77
2018-05-16T01:24:03.245Z,9.80
2018-05-16T01:27:06.421Z,9.20
2018-05-16T01:30:10.478Z,8.53
2018-05-16T01:33:14.542Z,9.40
2018-05-16T01:36:17.805Z,10.10
2018-05-16T01:39:21.052Z,9.27
2018-05-16T01:42:24.306Z,10.03
2018-05-16T01:45:27.559Z,10.57
2018-05-16T01:48:31.595Z,9.27
2018-05-16T01:51:34.849Z,10.07
2018-05-16T01:54:38.158Z,9.57
2018-05-16T01:57:41.414Z,8.83
2018-05-16T02:00:44.675Z,10.00
2018-05-16T02:03:48.699Z,10.43
2018-05-16T02:06:52.722Z,9.63
2018-05-16T02:09:56.752Z,9.73
2018-05-16T02:13:00.782Z,9.27
2018-05-16T02:16:04.044Z,10.43
2018-05-16T02:19:07.293Z,9.67
2018-05-16T02:22:10.561Z,10.47
2018-05-16T02:25:14.583Z,9.97
2018-05-16T02:28:18.704Z,9.68
2018-05-16T02:31:22.748Z,10.57
2018-05-16T02:34:26.023Z,9.70
2018-05-16T02:37:30.254Z,10.93
2018-05-16T02:40:34.181Z,10.03
2018-05-16T02:43:38.213Z,11.13
2018-05-16T02:46:41.483Z,10.50
2018-05-16T02:49:45.511Z,10.80
2018-05-16T02:52:49.571Z,9.93
2018-05-16T02:55:52.895Z,10.10
2018-05-16T02:58:56.150Z,9.67
2018-05-16T03:01:59.431Z,10.30
2018-05-16T03:05:02.689Z,11.97
2018-05-16T03:08:05.990Z,11.23
2018-05-16T03:11:09.278Z,11.17
2018-05-16T03:14:12.529Z,10.47
2018-05-16T03:17:15.797Z,11.27
2018-05-16T03:20:19.081Z,11.17
2018-05-16T03:23:22.368Z,10.67
2018-05-16T03:26:26.396Z,9.73
2018-05-16T03:29:30.424Z,10.10
2018-05-16T03:32:34.451Z,10.70
2018-05-16T03:35:38.497Z,10.03
2018-05-16T03:38:41.876Z,9.60
2018-05-16T03:41:45.907Z,10.30
2018-05-16T03:44:49.175Z,9.83
2018-05-16T03:47:52.460Z,10.40
2018-05-16T03:50:55.738Z,10.38
2018-05-16T03:53:59.400Z,10.70
2018-05-16T03:57:02.778Z,10.52
2018-05-16T04:00:24.059Z,9.37
2018-05-16T04:03:46.526Z,9.70
2018-05-16T04:06:49.872Z,10.07
2018-05-16T04:09:53.215Z,9.30
2018-05-16T04:12:56.483Z,9.00
2018-05-16T04:16:00.674Z,10.57
2018-05-16T04:19:04.707Z,10.27
2018-05-16T04:22:08.008Z,10.43
2018-05-16T04:25:12.037Z,9.23
2018-05-16T04:28:15.309Z,9.93
2018-05-16T04:31:33.159Z,9.43
2018-05-16T04:34:37.206Z,10.50
2018-05-16T04:37:40.643Z,7.83
2018-05-16T04:40:43.937Z,9.00
2018-05-16T04:43:47.262Z,9.37
2018-05-16T04:46:50.525Z,8.83
2018-05-16T04:49:54.556Z,8.53
2018-05-16T04:52:57.915Z,8.55
2018-05-16T04:56:01.109Z,9.40
2018-05-16T04:59:04.709Z,8.70
2018-05-16T05:02:08.007Z,8.47
2018-05-16T05:05:11.266Z,8.43
2018-05-16T05:08:14.542Z,8.40
2018-05-16T05:11:17.838Z,8.97
2018-05-16T05:14:21.127Z,8.97
2018-05-16T05:17:24.421Z,8.27
2018-05-16T05:20:27.690Z,8.10
2018-05-16T05:23:31.097Z,8.45
2018-05-16T05:26:34.354Z,8.83
2018-05-16T05:29:37.624Z,8.47
2018-05-16T05:32:40.994Z,8.37
2018-05-16T05:35:44.284Z,8.87
2018-05-16T05:38:47.589Z,8.57
2018-05-16T05:41:51.036Z,8.60
2018-05-16T05:44:54.955Z,8.43
2018-05-16T05:47:58.504Z,7.40
2018-05-16T05:51:02.103Z,7.83
2018-05-16T05:54:05.596Z,7.80
2018-05-16T05:57:09.108Z,6.90
2018-05-16T06:00:12.468Z,6.87
2018-05-16T06:03:15.688Z,7.10
2018-05-16T06:06:19.015Z,7.63
2018-05-16T06:09:23.103Z,7.43
2018-05-16T06:12:26.399Z,7.60
2018-05-16T06:15:29.679Z,8.00
2018-05-16T06:18:32.942Z,8.18
2018-05-16T06:21:36.211Z,7.67
2018-05-16T06:24:39.489Z,7.43
2018-05-16T06:27:42.754Z,7.87
2018-05-16T06:30:46.024Z,7.87
2018-05-16T06:33:49.288Z,6.67
2018-05-16T06:36:53.317Z,7.33
2018-05-16T06:39:57.345Z,7.73
2018-05-16T06:43:01.382Z,7.23
2018-05-16T06:46:05.500Z,6.07
2018-05-16T06:49:09.526Z,7.20
2018-05-16T06:52:13.592Z,7.17
2018-05-16T06:55:16.850Z,6.27
2018-05-16T06:58:20.131Z,6.20
2018-05-16T07:01:23.409Z,5.30
2018-05-16T07:04:26.677Z,6.57
2018-05-16T07:07:30.704Z,5.60
2018-05-16T07:10:33.970Z,5.90
2018-05-16T07:13:37.255Z,5.57
2018-05-16T07:16:40.511Z,5.43
2018-05-16T07:19:44.542Z,5.53
2018-05-16T07:22:47.924Z,5.17
2018-05-16T07:25:51.894Z,5.03
2018-05-16T07:28:55.396Z,4.83
2018-05-16T07:31:58.724Z,4.50
2018-05-16T07:35:02.001Z,4.53
2018-05-16T07:38:06.022Z,4.83
2018-05-16T07:41:10.105Z,4.53
2018-05-16T07:44:14.087Z,4.90
2018-05-16T07:47:18.112Z,5.27
2018-05-16T07:50:22.159Z,4.27
2018-05-16T07:53:25.451Z,5.00
2018-05-16T07:56:29.556Z,4.57
2018-05-16T07:59:32.809Z,4.10
2018-05-16T08:02:36.063Z,4.70
2018-05-16T08:05:39.355Z,4.80
2018-05-16T08:08:42.611Z,4.33
2018-05-16T08:11:46.649Z,4.20
2018-05-16T08:14:50.733Z,4.70
2018-05-16T08:17:54.007Z,4.07
2018-05-16T08:20:57.324Z,4.10
2018-05-16T08:24:00.565Z,4.37
2018-05-16T08:27:04.791Z,4.30
2018-05-16T08:30:08.061Z,4.00
2018-05-16T08:33:11.415Z,4.13
2018-05-16T08:36:14.677Z,4.07
2018-05-16T08:39:17.933Z,4.80
2018-05-16T08:42:21.965Z,4.40
2018-05-16T08:45:26.052Z,4.17
2018-05-16T08:48:29.290Z,3.93
2018-05-16T08:51:32.563Z,3.70
2018-05-16T08:54:35.856Z,3.83
2018-05-16T08:57:39.114Z,3.47
2018-05-16T09:00:42.372Z,3.50
2018-05-16T09:03:45.641Z,3.40
2018-05-16T09:06:49.678Z,3.87
2018-05-16T09:09:52.942Z,3.07
2018-05-16T09:12:56.205Z,3.17
2018-05-16T09:15:59.480Z,2.93
2018-05-16T09:19:02.748Z,3.30
2018-05-16T09:22:06.015Z,3.22
2018-05-16T09:25:09.312Z,2.97
2018-05-16T09:28:14.078Z,3.30
2018-05-16T09:31:17.707Z,3.03
2018-05-16T09:34:20.960Z,4.10
2018-05-16T09:37:24.288Z,3.37
2018-05-16T09:40:28.316Z,3.77
2018-05-16T09:43:31.837Z,3.33
2018-05-16T09:46:35.878Z,4.00
2018-05-16T09:49:39.136Z,4.30
2018-05-16T09:52:42.493Z,4.07
2018-05-16T09:55:45.786Z,4.10
2018-05-16T09:58:49.822Z,4.30
2018-05-16T10:01:53.083Z,4.10
2018-05-16T10:04:56.363Z,4.30
2018-05-16T10:07:59.639Z,3.93
2018-05-16T10:11:03.666Z,3.92
2018-05-16T10:14:07.686Z,3.57
2018-05-16T10:17:11.715Z,3.50
2018-05-16T10:20:15.833Z,4.00
2018-05-16T10:23:19.765Z,2.67
2018-05-16T10:26:23.797Z,2.62
2018-05-16T10:29:27.049Z,2.97
2018-05-16T10:32:30.346Z,3.30
2018-05-16T10:35:33.615Z,2.77
2018-05-16T10:38:36.887Z,2.53
2018-05-16T10:41:40.156Z,2.13
2018-05-16T10:44:43.418Z,2.77
2018-05-16T10:47:47.458Z,2.03
2018-05-16T10:50:50.714Z,2.13
2018-05-16T10:53:53.969Z,2.17
2018-05-16T10:56:57.235Z,2.13
2018-05-16T11:00:00.502Z,2.07
2018-05-16T11:03:03.761Z,1.80
2018-05-16T11:06:07.806Z,1.60
2018-05-16T11:09:11.829Z,1.63
2018-05-16T11:12:15.861Z,1.73
2018-05-16T11:15:19.897Z,2.00
2018-05-16T11:18:23.929Z,2.10
2018-05-16T11:21:28.223Z,1.90
2018-05-16T11:24:31.404Z,1.90
2018-05-16T11:27:35.031Z,2.10
2018-05-16T11:30:39.147Z,1.63
2018-05-16T11:33:42.596Z,2.13
2018-05-16T11:36:45.873Z,2.07
2018-05-16T11:39:49.145Z,2.87
2018-05-16T11:42:54.404Z,2.23
2018-05-16T11:45:57.684Z,2.20
2018-05-16T11:49:02.447Z,2.17
2018-05-16T11:52:05.756Z,1.70
2018-05-16T11:55:09.032Z,1.10
2018-05-16T11:58:12.313Z,1.13
2018-05-16T12:01:16.345Z,1.90
2018-05-16T12:04:19.621Z,1.40
2018-05-16T12:07:22.888Z,1.53
2018-05-16T12:10:26.156Z,1.70
2018-05-16T12:13:29.444Z,1.23
2018-05-16T12:20:07.312Z,1.20
2018-05-16T12:23:11.366Z,1.20
2018-05-16T12:26:15.681Z,1.67
2018-05-16T12:29:19.774Z,1.60
2018-05-16T12:32:22.926Z,1.97
2018-05-16T12:35:26.221Z,2.57
2018-05-16T12:38:29.650Z,2.50
2018-05-16T12:41:32.910Z,1.93
2018-05-16T12:44:36.162Z,1.93
2018-05-16T12:47:39.451Z,1.50
2018-05-16T12:50:42.710Z,1.50
2018-05-16T12:53:46.001Z,1.47
2018-05-16T12:56:49.286Z,1.97
2018-05-16T12:59:52.535Z,1.77
2018-05-16T13:02:55.790Z,5.23
2018-05-16T13:05:59.171Z,5.33
2018-05-16T13:09:03.230Z,3.93
2018-05-16T13:12:06.522Z,1.50
2018-05-16T13:15:09.791Z,1.37
2018-05-16T13:18:13.191Z,1.40
2018-05-16T13:21:16.420Z,0.80
2018-05-16T13:24:20.468Z,1.20
2018-05-16T13:27:23.767Z,1.17
2018-05-16T13:30:27.030Z,0.90
2018-05-16T13:33:30.431Z,1.10
2018-05-16T13:36:33.776Z,1.30
2018-05-16T13:39:37.807Z,1.30
2018-05-16T13:42:41.913Z,0.90
2018-05-16T13:45:45.206Z,2.20
2018-05-16T13:48:48.463Z,1.87
2018-05-16T13:51:51.715Z,2.00
2018-05-16T13:54:54.994Z,1.53
2018-05-16T13:57:58.293Z,1.87
2018-05-16T14:01:03.272Z,2.00
2018-05-16T14:04:08.269Z,2.37
2018-05-16T14:07:11.533Z,2.03
2018-05-16T14:10:14.818Z,1.90
2018-05-16T14:13:18.069Z,2.33
2018-05-16T14:16:21.330Z,2.27
2018-05-16T14:19:24.619Z,3.40
2018-05-16T14:22:27.925Z,2.47
2018-05-16T14:25:33.362Z,2.47
2018-05-16T14:28:37.398Z,3.07
2018-05-16T14:31:42.889Z,2.50
2018-05-16T14:34:46.432Z,2.87
2018-05-16T14:37:49.753Z,2.70
2018-05-16T14:40:53.011Z,3.23
2018-05-16T14:43:57.030Z,2.97
2018-05-16T14:47:00.333Z,3.70
2018-05-16T14:50:04.671Z,2.90
2018-05-16T14:53:08.014Z,3.50
2018-05-16T14:56:12.131Z,4.40
2018-05-16T14:59:15.389Z,3.53
2018-05-16T15:02:19.495Z,3.23
2018-05-16T15:05:22.747Z,3.47
2018-05-16T15:08:26.043Z,3.70
2018-05-16T15:11:29.347Z,3.03
2018-05-16T15:14:32.678Z,3.50
2018-05-16T15:17:35.943Z,3.97
2018-05-16T15:20:39.197Z,4.27
2018-05-16T15:23:42.453Z,4.43
2018-05-16T15:26:45.879Z,4.73
2018-05-16T15:29:50.000Z,4.40
2018-05-16T15:32:53.343Z,4.05
2018-05-16T15:35:56.592Z,4.10
2018-05-16T15:38:59.986Z,3.97
2018-05-16T15:42:03.405Z,3.93
2018-05-16T15:45:06.679Z,3.67
2018-05-16T15:48:10.761Z,3.80
2018-05-16T15:51:14.129Z,3.60
2018-05-16T15:54:17.465Z,3.80
2018-05-16T15:57:20.790Z,3.17
2018-05-16T16:00:24.107Z,3.30
2018-05-16T16:03:28.284Z,2.92
2018-05-16T16:06:31.581Z,3.97
2018-05-16T16:09:35.301Z,3.90
2018-05-16T16:12:38.582Z,3.90
2018-05-16T16:15:41.844Z,4.03
2018-05-16T16:18:45.149Z,3.53
2018-05-16T16:21:48.914Z,3.80
2018-05-16T16:24:52.951Z,3.67
2018-05-16T16:27:56.245Z,4.23
2018-05-16T16:31:00.403Z,3.50
2018-05-16T16:34:16.574Z,3.80
2018-05-16T16:37:41.726Z,3.73
2018-05-16T16:40:56.655Z,4.37
2018-05-16T16:44:03.883Z,4.33
2018-05-16T16:47:07.485Z,4.50
2018-05-16T16:53:45.657Z,5.10
2018-05-16T16:56:48.996Z,4.90
2018-05-16T16:59:53.248Z,5.37
2018-05-16T17:02:56.510Z,5.67
2018-05-16T17:06:00.652Z,3.87
2018-05-16T17:09:03.919Z,2.67
2018-05-16T17:12:07.197Z,2.00
2018-05-16T17:15:10.476Z,1.83
2018-05-16T17:18:14.621Z,1.37
2018-05-16T17:21:17.906Z,1.07
2018-05-16T17:24:22.018Z,1.50
2018-05-16T17:27:25.335Z,1.47
2018-05-16T17:30:29.419Z,1.33
2018-05-16T17:33:33.250Z,0.87
2018-05-16T17:36:36.506Z,0.80
2018-05-16T17:39:39.807Z,0.70
2018-05-16T17:42:43.077Z,0.60
2018-05-16T17:45:47.119Z,0.70
2018-05-16T17:48:50.383Z,1.00
2018-05-16T17:51:54.739Z,0.80
2018-05-16T17:54:58.177Z,0.87
2018-05-16T17:58:02.428Z,1.08
2018-05-16T18:01:06.069Z,1.03
2018-05-16T18:04:10.161Z,0.90
2018-05-16T18:07:13.457Z,0.93
2018-05-16T18:10:16.781Z,1.00
2018-05-16T18:17:27.919Z,3.00
2018-05-16T18:20:31.938Z,3.13
2018-05-16T18:23:35.978Z,4.90
2018-05-16T18:26:39.247Z,4.15
2018-05-16T18:29:42.614Z,4.80
2018-05-16T18:32:45.875Z,5.57
2018-05-16T18:35:49.282Z,3.17
2018-05-16T18:38:53.323Z,2.33
2018-05-16T18:41:57.357Z,3.03
2018-05-16T18:45:00.608Z,2.43
2018-05-16T18:48:03.862Z,2.00
2018-05-16T18:51:07.130Z,1.90
2018-05-16T18:54:11.169Z,1.60
2018-05-16T18:57:14.438Z,1.80
2018-05-16T19:00:17.698Z,2.20
2018-05-16T19:03:21.004Z,1.77
2018-05-16T19:06:24.864Z,1.73
2018-05-16T19:09:28.145Z,1.90
2018-05-16T19:12:31.403Z,1.80
2018-05-16T19:15:34.662Z,1.50
2018-05-16T19:18:37.917Z,1.50
2018-05-16T19:21:41.191Z,1.00
2018-05-16T19:24:45.036Z,1.40
2018-05-16T19:27:48.321Z,1.23
2018-05-16T19:30:51.591Z,1.20
2018-05-16T19:33:57.084Z,1.23
2018-05-16T19:37:01.206Z,1.20
2018-05-16T19:40:05.238Z,1.27
2018-05-16T19:43:11.006Z,1.50
2018-05-16T19:46:14.957Z,2.13
2018-05-16T19:49:18.839Z,2.50
2018-05-16T19:52:24.170Z,2.20
2018-05-16T19:55:27.453Z,2.30
2018-05-16T19:58:32.323Z,2.23
2018-05-16T20:01:37.256Z,2.70
2018-05-16T20:04:41.813Z,3.43
2018-05-16T20:07:45.909Z,3.20
2018-05-16T20:10:49.789Z,4.47
2018-05-16T20:13:53.082Z,4.90
2018-05-16T20:16:56.431Z,6.28
2018-05-16T20:20:00.501Z,6.10
2018-05-16T20:23:03.761Z,6.13
2018-05-16T20:26:07.078Z,7.60
2018-05-16T20:29:11.090Z,6.90
2018-05-16T20:32:15.217Z,6.37
2018-05-16T20:35:19.253Z,7.63
2018-05-16T20:38:23.317Z,7.53
2018-05-16T20:41:47.716Z,7.47
2018-05-16T20:44:52.832Z,7.53
2018-05-16T20:47:56.906Z,7.47
2018-05-16T20:51:00.175Z,8.07
2018-05-16T20:54:04.197Z,7.87
2018-05-16T20:57:07.501Z,7.63
2018-05-16T21:00:11.565Z,8.13
2018-05-16T21:03:14.843Z,7.93
2018-05-16T21:06:19.499Z,8.70
2018-05-16T21:09:22.748Z,8.27
2018-05-16T21:12:26.089Z,8.47
2018-05-16T21:15:30.132Z,8.53
2018-05-16T21:18:34.253Z,7.80
2018-05-16T21:21:39.899Z,8.43
2018-05-16T21:24:43.152Z,7.97
2018-05-16T21:27:46.538Z,8.48
2018-05-16T21:30:50.569Z,7.80
2018-05-16T21:33:54.647Z,8.17
2018-05-16T21:36:57.916Z,7.83
2018-05-16T21:40:01.190Z,8.37
2018-05-16T21:43:04.459Z,7.72
2018-05-16T21:46:07.728Z,8.13
2018-05-16T21:49:11.762Z,8.03
2018-05-16T21:52:15.863Z,8.27
2018-05-16T21:55:19.237Z,8.40
2018-05-16T21:58:22.534Z,8.18
2018-05-16T22:01:25.851Z,7.83
2018-05-16T22:04:29.118Z,8.47
2018-05-16T22:07:32.570Z,8.40
2018-05-16T22:10:36.777Z,9.20
2018-05-16T22:13:41.714Z,9.70
2018-05-16T22:16:45.861Z,8.83
2018-05-16T22:19:49.112Z,9.47
2018-05-16T22:22:52.421Z,9.13
2018-05-16T22:25:55.754Z,9.57
2018-05-16T22:28:59.036Z,8.87
2018-05-16T22:32:08.498Z,8.73
2018-05-16T22:35:17.453Z,9.00
2018-05-16T22:38:26.858Z,9.40
2018-05-16T22:41:35.777Z,8.70
2018-05-16T22:44:43.222Z,8.60
2018-05-16T22:47:46.481Z,9.50
2018-05-16T22:50:50.534Z,8.40
2018-05-16T22:53:53.781Z,9.17
2018-05-16T22:56:57.041Z,9.13
2018-05-16T23:00:00.340Z,9.03
2018-05-16T23:03:04.450Z,9.48
2018-05-16T23:06:07.669Z,9.03
2018-05-16T23:09:11.684Z,9.43
2018-05-16T23:12:15.714Z,9.27
2018-05-16T23:15:19.738Z,8.33
2018-05-16T23:18:23.760Z,9.30
2018-05-16T23:21:48.120Z,8.60
2018-05-16T23:24:52.897Z,8.30
2018-05-16T23:27:56.922Z,7.93
2018-05-16T23:31:01.002Z,8.67
2018-05-16T23:34:04.263Z,8.83
2018-05-16T23:37:07.619Z,7.97
2018-05-16T23:40:10.894Z,8.13
2018-05-16T23:43:14.880Z,8.17
2018-05-16T23:46:18.182Z,7.13
2018-05-16T23:49:21.446Z,7.40
2018-05-16T23:52:24.722Z,7.57
2018-05-16T23:55:27.994Z,6.60
2018-05-16T23:58:31.262Z,6.90
